Time;durP1;ratioP1;P1;durP2;ratioP2;P2;SDS_P1;SDS_P2;PMS_P1;PMS_P2;Temp;Humidity;BMP_temperature;BMP_pressure;BME280_temperature;BME280_humidity;BME280_pressure;Samples;Min_cycle;Max_cycle;Signal;HPM_P1;HPM_P2
2023/03/13 00:02:16;;;;;;;;;;;;;;;5.78;100.00;97610.63;5129891;27;19971;-65
2023/03/13 00:04:44;;;;;;;;;;;;;;;5.63;100.00;97609.56;5105984;28;20038;-65
2023/03/13 00:07:10;;;;;;;;;;;;;;;5.83;100.00;97604.59;5124498;28;19963;-65
2023/03/13 00:09:36;;;;;;;;;;;;;;;5.45;100.00;97606.06;5122119;28;19927;-65
2023/03/13 00:12:03;;;;;;;;;;;;;;;5.87;100.00;97592.53;5120694;28;19928;-65
2023/03/13 00:14:29;;;;;;;;;;;;;;;6.14;100.00;97592.66;5121701;28;19959;-65
2023/03/13 00:16:58;;;;;;;;;;;;;;;6.06;100.00;97603.69;5124016;28;20681;-64
2023/03/13 00:19:24;;;;;;;;;;;;;;;5.75;100.00;97589.91;5105975;28;20016;-65
2023/03/13 00:21:52;;;;;;;;;;;;;;;6.10;100.00;97594.19;5120452;28;19924;-66
2023/03/13 00:24:18;;;;;;;;;;;;;;;5.64;100.00;97588.13;5120572;28;19963;-65
2023/03/13 00:26:44;;;;;;;;;;;;;;;5.89;100.00;97595.72;5123514;28;19923;-65
2023/03/13 00:29:11;;;;;;;;;;;;;;;5.85;100.00;97581.31;5124127;28;20003;-65
2023/03/13 00:31:37;;;;;;;;;;;;;;;5.77;100.00;97573.75;5134512;27;19923;-64
2023/03/13 00:34:04;;;;;;;;;;;;;;;6.04;100.00;97569.44;5120508;28;19928;-65
2023/03/13 00:36:32;;;;;;;;;;;;;;;5.83;100.00;97567.50;5121747;28;19931;-65
2023/03/13 00:38:59;;;;;;;;;;;;;;;5.95;100.00;97576.19;5123821;28;19951;-65
2023/03/13 00:41:27;;;;;;;;;;;;;;;5.77;100.00;97565.81;5123481;28;19934;-65
2023/03/13 00:43:53;;;;;;;;;;;;;;;5.77;100.00;97563.16;5120203;28;19924;-65
2023/03/13 00:46:21;;;;;;;;;;;;;;;5.83;100.00;97557.72;5120473;28;19981;-64
2023/03/13 00:48:47;;;;;;;;;;;;;;;5.79;100.00;97564.53;5123677;28;19920;-64
2023/03/13 00:51:14;;;;;;;;;;;;;;;5.49;100.00;97555.28;5123848;28;19966;-65
2023/03/13 00:53:41;;;;;;;;;;;;;;;5.76;100.00;97561.56;5120717;28;19959;-65
2023/03/13 00:56:09;;;;;;;;;;;;;;;5.88;100.00;97557.03;5118974;28;19959;-64
2023/03/13 00:58:37;;;;;;;;;;;;;;;5.65;100.00;97550.00;5121352;28;20558;-65
2023/03/13 01:01:07;;;;;;;;;;;;;;;5.52;100.00;97541.56;5135604;27;19924;-65
2023/03/13 01:03:34;;;;;;;;;;;;;;;5.77;100.00;97539.31;5121532;28;19934;-65
2023/03/13 01:06:01;;;;;;;;;;;;;;;5.68;100.00;97540.78;5119420;28;19924;-66
2023/03/13 01:08:29;;;;;;;;;;;;;;;6.24;100.00;97540.59;5120096;28;19946;-65
2023/03/13 01:10:59;;;;;;;;;;;;;;;5.97;100.00;97531.72;5122831;28;19923;-66
2023/03/13 01:13:26;;;;;;;;;;;;;;;5.95;100.00;97523.19;5122754;28;19971;-65
2023/03/13 01:15:53;;;;;;;;;;;;;;;5.75;100.00;97512.28;5119259;28;19969;-65
2023/03/13 01:18:19;;;;;;;;;;;;;;;5.80;100.00;97515.81;5119404;28;19923;-66
2023/03/13 01:20:46;;;;;;;;;;;;;;;5.75;100.00;97512.28;5122746;28;19924;-66
2023/03/13 01:23:12;;;;;;;;;;;;;;;5.67;100.00;97510.81;5122676;28;19920;-65
2023/03/13 01:25:39;;;;;;;;;;;;;;;6.09;100.00;97516.53;5120597;28;20354;-65
2023/03/13 01:28:05;;;;;;;;;;;;;;;5.69;100.00;97505.28;5119350;28;20552;-65
2023/03/13 01:30:33;;;;;;;;;;;;;;;5.81;100.00;97513.97;5132903;27;19924;-65
2023/03/13 01:33:01;;;;;;;;;;;;;;;5.42;100.00;97500.63;5122614;28;20006;-66
2023/03/13 01:35:27;;;;;;;;;;;;;;;5.82;100.00;97503.09;5121938;28;19934;-65
2023/03/13 01:37:53;;;;;;;;;;;;;;;5.93;100.00;97504.91;5118918;28;19939;-65
2023/03/13 01:40:20;;;;;;;;;;;;;;;6.05;100.00;97511.94;5118884;28;19924;-65
2023/03/13 01:42:50;;;;;;;;;;;;;;;5.76;100.00;97512.03;5122109;28;19981;-65
2023/03/13 01:45:35;;;;;;;;;;;;;;;6.24;100.00;97521.22;5122463;28;19941;-65
2023/03/13 01:48:04;;;;;;;;;;;;;;;5.82;100.00;97516.34;5118852;28;19962;-66
2023/03/13 01:50:30;;;;;;;;;;;;;;;5.68;100.00;97508.97;5119824;28;19924;-65
2023/03/13 01:52:56;;;;;;;;;;;;;;;5.58;100.00;97512.25;5122147;28;19999;-66
2023/03/13 01:55:23;;;;;;;;;;;;;;;5.60;100.00;97522.63;5122023;28;19951;-66
2023/03/13 01:57:50;;;;;;;;;;;;;;;5.71;100.00;97514.59;5118560;28;20420;-64
2023/03/13 02:00:19;;;;;;;;;;;;;;;5.55;100.00;97514.59;5129543;27;19927;-65
2023/03/13 02:02:47;;;;;;;;;;;;;;;5.87;100.00;97507.72;5122304;27;19924;-65
2023/03/13 02:05:16;;;;;;;;;;;;;;;6.20;100.00;97493.59;5121981;28;19930;-65
2023/03/13 02:07:44;;;;;;;;;;;;;;;5.89;100.00;97489.72;5119088;28;20818;-65
2023/03/13 02:10:12;;;;;;;;;;;;;;;5.95;100.00;97491.41;5118324;28;20411;-65
2023/03/13 02:12:39;;;;;;;;;;;;;;;5.69;100.00;97495.50;5120599;28;19963;-65
2023/03/13 02:15:08;;;;;;;;;;;;;;;5.82;100.00;97504.94;5121802;28;19991;-65
2023/03/13 02:17:35;;;;;;;;;;;;;;;5.76;100.00;97492.66;5120191;28;19919;-65
2023/03/13 02:20:03;;;;;;;;;;;;;;;5.78;100.00;97495.91;5100267;28;19920;-65
2023/03/13 02:22:35;;;;;;;;;;;;;;;5.57;100.00;97488.69;5119227;28;19927;-65
2023/03/13 02:25:06;;;;;;;;;;;;;;;5.69;100.00;97484.09;5121644;28;19923;-65
2023/03/13 02:27:34;;;;;;;;;;;;;;;5.75;100.00;97477.84;5120355;28;19924;-63
2023/03/13 02:30:01;;;;;;;;;;;;;;;5.63;100.00;97471.81;5124651;27;20007;-64
2023/03/13 02:32:29;;;;;;;;;;;;;;;5.77;100.00;97476.53;5106374;28;19932;-65
2023/03/13 02:34:58;;;;;;;;;;;;;;;6.13;100.00;97471.78;5121554;28;19958;-65
2023/03/13 02:37:25;;;;;;;;;;;;;;;6.11;100.00;97468.56;5121401;28;19966;-65
2023/03/13 02:39:52;;;;;;;;;;;;;;;6.07;100.00;97476.19;5118137;28;19927;-65
2023/03/13 02:42:20;;;;;;;;;;;;;;;6.38;100.00;97480.84;5118130;28;19959;-65
2023/03/13 02:44:47;;;;;;;;;;;;;;;6.47;100.00;97483.88;5121317;28;19983;-65
2023/03/13 02:47:17;;;;;;;;;;;;;;;6.60;100.00;97480.84;5121783;28;19966;-66
2023/03/13 02:49:43;;;;;;;;;;;;;;;6.08;100.00;97472.50;5119083;28;20036;-65
2023/03/13 02:52:13;;;;;;;;;;;;;;;6.36;100.00;97480.31;5118332;28;19948;-65
2023/03/13 02:54:40;;;;;;;;;;;;;;;6.06;100.00;97466.66;5120152;28;19927;-66
2023/03/13 02:57:06;;;;;;;;;;;;;;;6.17;100.00;97465.72;5121494;28;19935;-66
2023/03/13 02:59:33;;;;;;;;;;;;;;;6.00;100.00;97470.28;5101821;28;19959;-66
2023/03/13 03:02:01;;;;;;;;;;;;;;;5.59;100.00;97462.75;5112152;28;19931;-66
2023/03/13 03:04:27;;;;;;;;;;;;;;;5.90;100.00;97475.44;5118360;28;19928;-66
2023/03/13 03:06:54;;;;;;;;;;;;;;;5.69;100.00;97462.91;5121196;28;19935;-66
2023/03/13 03:09:21;;;;;;;;;;;;;;;6.19;100.00;97473.44;5121303;28;19923;-66
2023/03/13 03:11:47;;;;;;;;;;;;;;;6.14;100.00;97471.53;5117625;28;19944;-66
2023/03/13 03:14:14;;;;;;;;;;;;;;;6.08;100.00;97467.19;5117723;28;20030;-66
2023/03/13 03:16:40;;;;;;;;;;;;;;;5.97;100.00;97473.41;5119955;28;20375;-66
2023/03/13 03:19:08;;;;;;;;;;;;;;;6.11;100.00;97464.06;5105586;28;19952;-66
2023/03/13 03:21:35;;;;;;;;;;;;;;;6.15;100.00;97467.03;5123281;28;19924;-66
2023/03/13 03:24:01;;;;;;;;;;;;;;;5.96;100.00;97469.16;5121054;28;20031;-66
2023/03/13 03:26:27;;;;;;;;;;;;;;;5.89;100.00;97468.53;5121826;28;19971;-66
2023/03/13 03:28:54;;;;;;;;;;;;;;;5.81;100.00;97475.03;5124653;28;19991;-66
2023/03/13 03:31:20;;;;;;;;;;;;;;;5.56;100.00;97464.03;5137349;27;19923;-66
2023/03/13 03:33:46;;;;;;;;;;;;;;;6.05;100.00;97466.88;5121189;28;19962;-66
2023/03/13 03:36:15;;;;;;;;;;;;;;;5.84;100.00;97471.06;5121113;28;19951;-66
2023/03/13 03:38:41;;;;;;;;;;;;;;;5.70;100.00;97459.19;5123505;28;19947;-66
2023/03/13 03:41:08;;;;;;;;;;;;;;;5.57;100.00;97464.84;5124423;28;19928;-66
2023/03/13 03:43:34;;;;;;;;;;;;;;;5.94;100.00;97463.31;5122672;28;19962;-66
2023/03/13 03:46:01;;;;;;;;;;;;;;;5.87;100.00;97455.53;5102595;28;19928;-66
2023/03/13 03:48:27;;;;;;;;;;;;;;;5.40;100.00;97449.75;5121145;28;19988;-65
2023/03/13 03:50:54;;;;;;;;;;;;;;;5.90;100.00;97455.03;5124253;28;19931;-65
2023/03/13 03:53:21;;;;;;;;;;;;;;;5.64;100.00;97444.28;5124531;28;19924;-65
2023/03/13 03:55:48;;;;;;;;;;;;;;;5.42;100.00;97436.25;5120717;28;19975;-65
2023/03/13 03:58:14;;;;;;;;;;;;;;;5.37;100.00;97428.25;5120690;28;19960;-65
2023/03/13 04:00:42;;;;;;;;;;;;;;;5.95;100.00;97435.75;5135828;27;19995;-65
2023/03/13 04:03:09;;;;;;;;;;;;;;;5.40;100.00;97422.47;5124123;28;19924;-65
2023/03/13 04:05:35;;;;;;;;;;;;;;;5.84;100.00;97433.97;5122358;28;19970;-65
2023/03/13 04:08:01;;;;;;;;;;;;;;;5.89;100.00;97434.06;5120448;28;19955;-65
2023/03/13 04:10:29;;;;;;;;;;;;;;;5.58;100.00;97432.81;5121059;28;20517;-65
2023/03/13 04:12:55;;;;;;;;;;;;;;;5.63;100.00;97424.16;5124171;28;19924;-65
2023/03/13 04:15:22;;;;;;;;;;;;;;;5.57;100.00;97427.75;5123968;28;19979;-65
2023/03/13 04:17:48;;;;;;;;;;;;;;;5.37;100.00;97418.47;5120304;28;19978;-65
2023/03/13 04:20:15;;;;;;;;;;;;;;;5.66;100.00;97421.00;5120591;28;19946;-65
2023/03/13 04:22:42;;;;;;;;;;;;;;;5.56;100.00;97413.72;5122719;28;19931;-65
2023/03/13 04:25:09;;;;;;;;;;;;;;;5.48;100.00;97408.03;5123670;28;19991;-65
2023/03/13 04:27:37;;;;;;;;;;;;;;;5.30;100.00;97407.22;5122129;28;19927;-65
2023/03/13 04:30:03;;;;;;;;;;;;;;;5.26;100.00;97411.38;5127067;27;19951;-65
2023/03/13 04:32:30;;;;;;;;;;;;;;;5.23;100.00;97405.81;5126477;27;19924;-65
2023/03/13 04:34:56;;;;;;;;;;;;;;;5.16;100.00;97390.06;5123657;28;20052;-65
2023/03/13 04:37:22;;;;;;;;;;;;;;;5.09;100.00;97394.72;5123760;28;19959;-65
2023/03/13 04:39:49;;;;;;;;;;;;;;;5.09;100.00;97383.31;5111668;28;19963;-65
2023/03/13 04:42:15;;;;;;;;;;;;;;;5.10;100.00;97384.94;5111612;28;19924;-65
2023/03/13 04:44:43;;;;;;;;;;;;;;;5.07;100.00;97383.59;5111332;28;19924;-65
2023/03/13 04:47:09;;;;;;;;;;;;;;;5.20;100.00;97387.75;5101902;28;19928;-65
2023/03/13 04:49:35;;;;;;;;;;;;;;;5.12;100.00;97382.84;5111367;28;19928;-65
2023/03/13 04:52:02;;;;;;;;;;;;;;;5.12;100.00;97378.34;5111227;28;19952;-65
2023/03/13 04:54:28;;;;;;;;;;;;;;;5.10;100.00;97383.09;5120662;28;19960;-66
2023/03/13 04:56:54;;;;;;;;;;;;;;;5.16;100.00;97384.78;5122950;28;19924;-65
2023/03/13 04:59:21;;;;;;;;;;;;;;;5.18;100.00;97389.81;5123146;28;19971;-65
2023/03/13 05:01:49;;;;;;;;;;;;;;;5.25;100.00;97393.91;5132504;27;19935;-65
2023/03/13 05:04:15;;;;;;;;;;;;;;;5.17;100.00;97383.72;5119584;28;19931;-65
2023/03/13 05:06:42;;;;;;;;;;;;;;;5.47;100.00;97390.53;5122118;28;19920;-65
2023/03/13 05:09:08;;;;;;;;;;;;;;;5.88;100.00;97393.50;5122987;28;19938;-65
2023/03/13 05:11:34;;;;;;;;;;;;;;;5.47;100.00;97379.94;5121047;28;19924;-65
2023/03/13 05:14:01;;;;;;;;;;;;;;;5.39;100.00;97376.66;5119087;28;19920;-66
2023/03/13 05:16:27;;;;;;;;;;;;;;;5.50;100.00;97374.97;5101738;28;19924;-66
2023/03/13 05:18:55;;;;;;;;;;;;;;;5.38;100.00;97371.63;5122605;28;20532;-64
2023/03/13 05:21:21;;;;;;;;;;;;;;;5.51;100.00;97373.13;5123056;28;19949;-65
2023/03/13 05:23:48;;;;;;;;;;;;;;;5.39;100.00;97358.13;5119065;28;19924;-65
2023/03/13 05:26:14;;;;;;;;;;;;;;;5.28;100.00;97358.22;5118997;28;19943;-65
2023/03/13 05:28:40;;;;;;;;;;;;;;;5.28;100.00;97351.09;5103409;28;19955;-65
2023/03/13 05:31:07;;;;;;;;;;;;;;;5.24;100.00;97341.22;5135115;27;19991;-65
2023/03/13 05:33:33;;;;;;;;;;;;;;;5.23;100.00;97332.47;5102661;28;19924;-65
2023/03/13 05:36:01;;;;;;;;;;;;;;;5.29;100.00;97342.06;5118905;28;19963;-65
2023/03/13 05:38:27;;;;;;;;;;;;;;;5.24;100.00;97349.94;5119697;28;19931;-65
2023/03/13 05:40:54;;;;;;;;;;;;;;;5.28;100.00;97356.38;5121981;28;19924;-65
2023/03/13 05:43:20;;;;;;;;;;;;;;;5.58;100.00;97352.53;5122472;28;19924;-65
2023/03/13 05:45:46;;;;;;;;;;;;;;;5.45;100.00;97349.19;5118944;28;19924;-65
2023/03/13 05:48:13;;;;;;;;;;;;;;;5.35;100.00;97337.69;5118756;28;19987;-65
2023/03/13 05:50:39;;;;;;;;;;;;;;;5.51;100.00;97338.69;5102490;28;19932;-65
2023/03/13 05:53:07;;;;;;;;;;;;;;;5.47;100.00;97322.50;5122202;28;19995;-65
2023/03/13 05:55:33;;;;;;;;;;;;;;;5.45;100.00;97328.00;5120720;28;20045;-65
2023/03/13 05:58:00;;;;;;;;;;;;;;;5.44;100.00;97341.50;5118531;28;19939;-65
2023/03/13 06:00:26;;;;;;;;;;;;;;;5.38;100.00;97345.91;5113575;28;20251;-64
2023/03/13 06:02:53;;;;;;;;;;;;;;;5.38;100.00;97329.25;5122181;28;19954;-64
2023/03/13 06:05:19;;;;;;;;;;;;;;;5.34;100.00;97325.47;5122122;28;19927;-64
2023/03/13 06:07:45;;;;;;;;;;;;;;;5.33;100.00;97329.97;5119051;28;19924;-65
2023/03/13 06:10:13;;;;;;;;;;;;;;;5.36;100.00;97318.88;5118163;28;19959;-65
2023/03/13 06:12:39;;;;;;;;;;;;;;;5.40;100.00;97327.94;5120411;28;19979;-65
2023/03/13 06:15:08;;;;;;;;;;;;;;;5.44;100.00;97320.31;5121690;28;19995;-65
2023/03/13 06:17:34;;;;;;;;;;;;;;;5.38;100.00;97313.38;5120295;28;19930;-65
2023/03/13 06:20:01;;;;;;;;;;;;;;;5.44;100.00;97323.78;5118252;28;19946;-65
2023/03/13 06:22:27;;;;;;;;;;;;;;;5.59;100.00;97322.38;5118699;28;19954;-65
2023/03/13 06:24:53;;;;;;;;;;;;;;;5.57;100.00;97321.81;5121675;28;19962;-65
2023/03/13 06:27:21;;;;;;;;;;;;;;;5.55;100.00;97311.47;5121760;28;19924;-65
2023/03/13 06:29:47;;;;;;;;;;;;;;;5.53;100.00;97332.09;5121090;28;19928;-65
2023/03/13 06:32:14;;;;;;;;;;;;;;;5.57;100.00;97324.47;5127882;27;19928;-65
2023/03/13 06:34:40;;;;;;;;;;;;;;;5.54;100.00;97317.00;5120285;28;19931;-65
2023/03/13 06:37:06;;;;;;;;;;;;;;;5.54;100.00;97317.78;5121415;28;19931;-65
2023/03/13 06:39:33;;;;;;;;;;;;;;;5.59;100.00;97303.81;5120255;28;19946;-65
2023/03/13 06:41:59;;;;;;;;;;;;;;;5.60;100.00;97285.03;5117971;28;19978;-65
2023/03/13 06:44:27;;;;;;;;;;;;;;;5.59;100.00;97283.44;5118337;28;19946;-65
2023/03/13 06:46:53;;;;;;;;;;;;;;;5.59;100.00;97283.44;5121382;28;19971;-65
2023/03/13 06:49:20;;;;;;;;;;;;;;;5.61;100.00;97277.88;5121687;28;19924;-65
2023/03/13 06:51:46;;;;;;;;;;;;;;;5.62;100.00;97282.16;5118519;28;19955;-65
2023/03/13 06:54:13;;;;;;;;;;;;;;;5.62;100.00;97292.75;5120928;28;19928;-65
2023/03/13 06:56:39;;;;;;;;;;;;;;;5.59;100.00;97293.22;5124043;28;20015;-66
2023/03/13 06:59:05;;;;;;;;;;;;;;;5.68;100.00;97278.50;5125506;28;19945;-66
2023/03/13 07:01:33;;;;;;;;;;;;;;;5.67;100.00;97284.84;5118396;28;19985;-66
2023/03/13 07:03:59;;;;;;;;;;;;;;;5.73;100.00;97289.16;5103506;28;19963;-65
2023/03/13 07:06:26;;;;;;;;;;;;;;;5.76;100.00;97296.63;5121919;28;19946;-65
2023/03/13 07:08:53;;;;;;;;;;;;;;;5.88;100.00;97300.00;5125235;28;19924;-66
2023/03/13 07:11:19;;;;;;;;;;;;;;;5.90;100.00;97289.94;5124959;28;20024;-65
2023/03/13 07:13:46;;;;;;;;;;;;;;;5.96;100.00;97299.53;5121949;28;19924;-65
2023/03/13 07:16:13;;;;;;;;;;;;;;;5.93;100.00;97294.75;5121278;28;19920;-65
2023/03/13 07:18:43;;;;;;;;;;;;;;;5.90;100.00;97303.19;5123440;28;19950;-65
2023/03/13 07:21:10;;;;;;;;;;;;;;;5.86;100.00;97300.22;5125191;28;19938;-65
2023/03/13 07:23:36;;;;;;;;;;;;;;;5.96;100.00;97296.91;5122951;28;19931;-65
2023/03/13 07:26:04;;;;;;;;;;;;;;;5.93;100.00;97305.34;5121012;28;19984;-65
2023/03/13 07:28:31;;;;;;;;;;;;;;;5.85;100.00;97292.47;5121960;28;19999;-65
2023/03/13 07:31:03;;;;;;;;;;;;;;;5.85;100.00;97289.81;5137478;27;19962;-65
2023/03/13 07:33:29;;;;;;;;;;;;;;;5.82;100.00;97288.47;5123860;28;19999;-65
2023/03/13 07:35:57;;;;;;;;;;;;;;;5.94;100.00;97286.53;5121017;28;19924;-65
2023/03/13 07:38:23;;;;;;;;;;;;;;;5.94;100.00;97272.50;5121270;28;19924;-65
2023/03/13 07:40:50;;;;;;;;;;;;;;;6.02;100.00;97264.09;5112540;28;19935;-65
2023/03/13 07:43:17;;;;;;;;;;;;;;;6.06;100.00;97265.22;5112302;28;19951;-65
2023/03/13 07:45:50;;;;;;;;;;;;;;;6.15;100.00;97266.34;5112261;28;19924;-65
2023/03/13 07:48:17;;;;;;;;;;;;;;;6.04;100.00;97264.63;5112366;28;19928;-65
2023/03/13 07:50:43;;;;;;;;;;;;;;;6.04;100.00;97261.19;5112282;28;19924;-65
2023/03/13 07:53:11;;;;;;;;;;;;;;;5.95;100.00;97255.53;5112310;28;19968;-65
2023/03/13 07:55:37;;;;;;;;;;;;;;;6.03;100.00;97262.25;5112253;28;19920;-65
2023/03/13 07:58:04;;;;;;;;;;;;;;;6.05;100.00;97268.91;5112055;28;20493;-65
2023/03/13 08:00:30;;;;;;;;;;;;;;;6.11;100.00;97256.50;5125947;27;19930;-64
2023/03/13 08:02:57;;;;;;;;;;;;;;;6.22;100.00;97261.63;5124116;28;19923;-65
2023/03/13 08:05:23;;;;;;;;;;;;;;;6.43;100.00;97267.94;5123584;28;20509;-65
2023/03/13 08:07:49;;;;;;;;;;;;;;;6.29;100.00;97267.53;5112104;28;19928;-65
2023/03/13 08:10:17;;;;;;;;;;;;;;;6.30;100.00;97271.00;5112050;28;19931;-65
2023/03/13 08:12:44;;;;;;;;;;;;;;;6.29;100.00;97274.69;5111933;28;20868;-65
2023/03/13 08:15:10;;;;;;;;;;;;;;;6.29;100.00;97267.53;5111761;28;19974;-64
2023/03/13 08:17:36;;;;;;;;;;;;;;;6.31;100.00;97270.72;5102067;28;19928;-65
2023/03/13 08:20:03;;;;;;;;;;;;;;;6.37;100.00;97274.25;5117016;28;19955;-65
2023/03/13 08:22:30;;;;;;;;;;;;;;;6.35;100.00;97268.38;5122775;28;19945;-65
2023/03/13 08:24:57;;;;;;;;;;;;;;;6.37;100.00;97274.25;5101961;28;19924;-65
2023/03/13 08:27:24;;;;;;;;;;;;;;;6.37;100.00;97276.91;5120141;28;19986;-65
2023/03/13 08:29:51;;;;;;;;;;;;;;;6.41;100.00;97270.84;5115140;27;20600;-64
2023/03/13 08:32:18;;;;;;;;;;;;;;;6.46;100.00;97267.44;5128675;27;19985;-65
2023/03/13 08:34:44;;;;;;;;;;;;;;;6.50;100.00;97271.16;5122800;28;19966;-65
2023/03/13 08:37:14;;;;;;;;;;;;;;;6.50;100.00;97258.72;5123381;28;19998;-65
2023/03/13 08:39:42;;;;;;;;;;;;;;;6.55;100.00;97250.00;5120840;28;19924;-65
2023/03/13 08:42:13;;;;;;;;;;;;;;;6.66;100.00;97250.88;5119723;28;19942;-65
2023/03/13 08:44:40;;;;;;;;;;;;;;;6.73;100.00;97246.16;5121800;28;19953;-65
2023/03/13 08:47:07;;;;;;;;;;;;;;;6.78;100.00;97243.53;5123069;28;19920;-65
2023/03/13 08:49:34;;;;;;;;;;;;;;;6.92;100.00;97244.72;5121804;28;19924;-65
2023/03/13 08:52:00;;;;;;;;;;;;;;;6.97;100.00;97232.25;5119457;28;19924;-65
2023/03/13 08:54:27;;;;;;;;;;;;;;;7.07;100.00;97234.19;5119837;28;19927;-65
2023/03/13 08:56:53;;;;;;;;;;;;;;;7.07;100.00;97212.94;5122884;28;19924;-64
2023/03/13 08:59:19;;;;;;;;;;;;;;;7.12;100.00;97238.72;5123013;28;19973;-65
2023/03/13 09:01:47;;;;;;;;;;;;;;;7.14;100.00;97220.69;5132776;27;19935;-65
2023/03/13 09:04:13;;;;;;;;;;;;;;;7.33;100.00;97233.28;5119348;28;19924;-66
2023/03/13 09:06:40;;;;;;;;;;;;;;;7.36;100.00;97208.84;5121354;28;20364;-66
2023/03/13 09:09:07;;;;;;;;;;;;;;;7.32;100.00;97222.91;5122661;28;19954;-65
2023/03/13 09:11:33;;;;;;;;;;;;;;;7.47;100.00;97236.25;5121442;28;19991;-66
2023/03/13 09:14:00;;;;;;;;;;;;;;;7.60;100.00;97225.94;5119308;28;19968;-65
2023/03/13 09:16:27;;;;;;;;;;;;;;;7.55;100.00;97207.31;5118622;28;19960;-65
2023/03/13 09:18:55;;;;;;;;;;;;;;;7.67;100.00;97180.53;5122311;28;19962;-65
2023/03/13 09:21:23;;;;;;;;;;;;;;;7.63;100.00;97191.94;5122553;28;20063;-65
2023/03/13 09:23:49;;;;;;;;;;;;;;;7.93;100.00;97171.53;5118842;28;19991;-65
2023/03/13 09:26:16;;;;;;;;;;;;;;;8.06;100.00;97164.91;5118683;28;19924;-65
2023/03/13 09:28:43;;;;;;;;;;;;;;;7.98;100.00;97176.84;5121420;28;19924;-65
2023/03/13 09:31:11;;;;;;;;;;;;;;;7.98;100.00;97168.88;5135210;27;20000;-65
2023/03/13 09:33:37;;;;;;;;;;;;;;;8.09;100.00;97169.69;5120348;28;19991;-65
2023/03/13 09:36:05;;;;;;;;;;;;;;;7.94;100.00;97169.69;5118532;28;19989;-65
2023/03/13 09:38:31;;;;;;;;;;;;;;;8.02;100.00;97177.13;5119742;28;19959;-65
2023/03/13 09:41:02;;;;;;;;;;;;;;;7.83;100.00;97171.50;5122331;28;19935;-65
2023/03/13 09:43:33;;;;;;;;;;;;;;;8.03;100.00;97168.09;5121499;28;19988;-65
2023/03/13 09:46:02;;;;;;;;;;;;;;;8.06;100.00;97167.56;5118616;28;19934;-65
2023/03/13 09:48:30;;;;;;;;;;;;;;;8.13;100.00;97168.91;5119084;28;19962;-65
2023/03/13 09:51:01;;;;;;;;;;;;;;;8.19;100.00;97169.72;5121906;28;19926;-65
2023/03/13 09:53:33;;;;;;;;;;;;;;;8.22;100.00;97168.38;5121485;28;19958;-65
2023/03/13 09:56:00;;;;;;;;;;;;;;;8.28;100.00;97167.34;5118287;28;19959;-65
2023/03/13 09:58:28;;;;;;;;;;;;;;;8.25;100.00;97166.00;5118529;28;19952;-66
2023/03/13 10:00:57;;;;;;;;;;;;;;;8.33;100.00;97165.47;5134777;27;19924;-66
2023/03/13 10:03:25;;;;;;;;;;;;;;;8.33;100.00;97165.47;5121931;28;20011;-66
2023/03/13 10:05:53;;;;;;;;;;;;;;;8.33;100.00;97160.16;5118275;28;19924;-65
2023/03/13 10:08:21;;;;;;;;;;;;;;;8.33;100.00;97154.84;5118369;28;19995;-65
2023/03/13 10:10:52;;;;;;;;;;;;;;;8.38;100.00;97157.50;5103384;28;20014;-65
2023/03/13 10:13:22;;;;;;;;;;;;;;;8.40;100.00;97154.56;5121706;28;19947;-65
2023/03/13 10:15:50;;;;;;;;;;;;;;;8.49;100.00;97158.28;5118444;28;19960;-66
2023/03/13 10:18:18;;;;;;;;;;;;;;;8.52;100.00;97158.56;5118234;28;19931;-66
2023/03/13 10:20:45;;;;;;;;;;;;;;;8.55;100.00;97151.91;5121021;28;19928;-66
2023/03/13 10:23:14;;;;;;;;;;;;;;;8.56;100.00;97164.94;5103415;28;19970;-66
2023/03/13 10:25:41;;;;;;;;;;;;;;;8.60;100.00;97155.34;5119298;28;19951;-66
2023/03/13 10:28:12;;;;;;;;;;;;;;;8.59;100.00;97151.09;5102918;28;20034;-66
2023/03/13 10:30:42;;;;;;;;;;;;;;;8.70;100.00;97153.75;5137046;27;19931;-64
2023/03/13 10:33:19;;;;;;;;;;;;;;;8.71;100.00;97155.34;5107159;28;19928;-66
2023/03/13 10:35:45;;;;;;;;;;;;;;;8.81;100.00;97150.00;5122464;28;19931;-66
2023/03/13 10:38:13;;;;;;;;;;;;;;;8.90;100.00;97148.38;5121794;28;19971;-66
2023/03/13 10:40:41;;;;;;;;;;;;;;;9.02;100.00;97140.88;5105675;28;20034;-66
2023/03/13 10:43:13;;;;;;;;;;;;;;;9.19;100.00;97138.72;5125409;28;20422;-65
2023/03/13 10:45:41;;;;;;;;;;;;;;;9.31;100.00;97138.38;5122743;28;19959;-66
2023/03/13 10:48:12;;;;;;;;;;;;;;;9.38;100.00;97138.88;5121355;28;19932;-65
2023/03/13 10:50:41;;;;;;;;;;;;;;;9.35;100.00;97129.56;5123406;28;19924;-66
2023/03/13 10:53:19;;;;;;;;;;;;;;;9.34;100.00;97135.97;5125000;28;19975;-65
2023/03/13 10:55:46;;;;;;;;;;;;;;;9.37;100.00;97127.44;5122093;28;20000;-65
2023/03/13 10:58:18;;;;;;;;;;;;;;;9.56;100.00;97122.28;5121364;28;19924;-65
2023/03/13 11:00:46;;;;;;;;;;;;;;;9.70;100.00;97131.25;5137175;27;19990;-64
2023/03/13 11:03:16;;;;;;;;;;;;;;;9.81;100.00;97116.00;5124841;28;19987;-65
2023/03/13 11:05:43;;;;;;;;;;;;;;;9.85;100.00;97125.81;5122364;28;20011;-66
2023/03/13 11:08:19;;;;;;;;;;;;;;;9.92;100.00;97112.16;5103143;28;20015;-65
2023/03/13 11:10:57;;;;;;;;;;;;;;;9.98;100.00;97119.06;5124271;28;20552;-65
2023/03/13 11:13:44;;;;;;;;;;;;;;;10.10;100.00;97124.84;5124814;28;19958;-66
2023/03/13 11:16:21;;;;;;;;;;;;;;;10.27;100.00;97111.94;5117542;28;19924;-66
2023/03/13 11:18:55;;;;;;;;;;;;;;;10.29;100.00;97093.75;5124667;28;19966;-66
2023/03/13 11:21:24;;;;;;;;;;;;;;;10.41;100.00;97101.38;5124881;28;20014;-65
2023/03/13 11:23:55;;;;;;;;;;;;;;;10.42;100.00;97106.47;5112808;28;19924;-65
2023/03/13 11:26:26;;;;;;;;;;;;;;;10.57;100.00;97100.16;5112941;28;19987;-65
2023/03/13 11:28:55;;;;;;;;;;;;;;;10.67;100.00;97092.88;5116620;28;19962;-65
2023/03/13 11:31:24;;;;;;;;;;;;;;;10.67;100.00;97092.88;5137624;27;19947;-65
2023/03/13 11:33:56;;;;;;;;;;;;;;;10.74;100.00;97092.50;5120926;28;19963;-65
2023/03/13 11:36:27;;;;;;;;;;;;;;;10.84;100.00;97079.06;5120953;28;19926;-65
2023/03/13 11:38:55;;;;;;;;;;;;;;;10.87;100.00;97070.47;5120201;28;19931;-65
2023/03/13 11:41:29;;;;;;;;;;;;;;;10.81;100.00;97071.59;5102963;28;19955;-65
2023/03/13 11:44:07;;;;;;;;;;;;;;;10.93;100.00;97076.53;5120804;28;19920;-65
2023/03/13 11:46:45;;;;;;;;;;;;;;;11.16;100.00;97055.16;5121926;28;19967;-65
2023/03/13 11:49:39;;;;;;;;;;;;;;;11.09;100.00;97072.63;5124008;28;19920;-65
2023/03/13 11:52:11;;;;;;;;;;;;;;;10.66;100.00;97069.09;5120679;28;19954;-65
2023/03/13 11:54:52;;;;;;;;;;;;;;;10.87;100.00;97069.66;5122273;28;19932;-65
2023/03/13 11:57:21;;;;;;;;;;;;;;;10.77;100.00;97058.03;5123999;28;19991;-65
2023/03/13 11:59:52;;;;;;;;;;;;;;;10.94;100.00;97062.91;5123277;27;20019;-65
2023/03/13 12:02:24;;;;;;;;;;;;;;;10.73;100.00;97054.34;5129149;27;19935;-65
2023/03/13 12:04:54;;;;;;;;;;;;;;;10.79;100.00;97060.41;5111718;28;19924;-64
2023/03/13 12:07:24;;;;;;;;;;;;;;;10.76;100.00;97061.00;5093524;28;19924;-65
2023/03/13 12:09:53;;;;;;;;;;;;;;;10.82;100.00;97057.19;5119906;28;20022;-65
2023/03/13 12:12:26;;;;;;;;;;;;;;;10.83;100.00;97064.13;5120081;28;19927;-65
2023/03/13 12:14:54;;;;;;;;;;;;;;;10.86;100.00;97058.22;5120475;28;19987;-65
2023/03/13 12:17:29;;;;;;;;;;;;;;;10.89;100.00;97057.66;5120271;28;19984;-65
2023/03/13 12:19:58;;;;;;;;;;;;;;;10.88;100.00;97050.69;5120145;28;19963;-65
2023/03/13 12:22:28;;;;;;;;;;;;;;;10.57;100.00;97036.91;5120146;28;19925;-66
2023/03/13 12:24:57;;;;;;;;;;;;;;;10.84;100.00;97044.31;5123473;28;19924;-66
2023/03/13 12:27:26;;;;;;;;;;;;;;;11.07;100.00;97029.38;5123573;28;19991;-65
2023/03/13 12:29:55;;;;;;;;;;;;;;;11.08;100.00;97023.72;5123619;27;20003;-65
2023/03/13 12:32:25;;;;;;;;;;;;;;;11.07;100.00;97022.16;5127568;27;20064;-65
2023/03/13 12:34:57;;;;;;;;;;;;;;;11.19;100.00;97019.03;5119687;28;19960;-65
2023/03/13 12:37:26;;;;;;;;;;;;;;;11.47;100.00;97017.31;5119807;28;19930;-65
2023/03/13 12:39:56;;;;;;;;;;;;;;;11.54;100.00;97015.88;5119863;28;20377;-66
2023/03/13 12:42:37;;;;;;;;;;;;;;;11.73;100.00;97016.66;5119797;28;19963;-65
2023/03/13 12:45:04;;;;;;;;;;;;;;;11.75;100.00;96995.78;5119811;28;19974;-65
2023/03/13 12:47:33;;;;;;;;;;;;;;;11.73;100.00;96997.13;5120482;28;19959;-65
2023/03/13 12:50:23;;;;;;;;;;;;;;;11.91;100.00;96996.31;5122571;28;19963;-65